LFBE/EGC METAR and TAF weather

Enter ICAO airport designator
Station Type Date Time Source
LFBE METAR 2022/11/30 17:30 UTC NOAA

LFBE 301730Z AUTO VRB01KT 9999 FEW043 04/03 Q1018 NOSIG


Station Type Date Time Source
LFBE Decoded METAR 2022/11/30 17:30 UTC NOAA

Bergerac, France (LFBE) 44-49N 000-31E 52M
Nov 30, 2022 - 12:30 PM EST / 2022.11.30 1730 UTC
Wind: Variable at 1 MPH (1 KT):0
Visibility: greater than 7 mile(s):0
Sky conditions: mostly clear
Temperature: 39 F (4 C)
Dew Point: 37 F (3 C)
Relative Humidity: 93%
Pressure (altimeter): 30.06 in. Hg (1018 hPa)
ob: LFBE 301730Z AUTO VRB01KT 9999 FEW043 04/03 Q1018 NOSIG
cycle: 17

Station Type Date Time Source
LFBE TAF 2022/11/30 18:42 UTC NOAA

TAF LFBE 301700Z 3018/0118 VRB03KT CAVOK PROB40 3022/0110 3000 BR PROB30
TEMPO 3022/0109 0500 FG VV///
BECMG 0111/0113 03010KT
TEMPO 0113/0118 BKN025

Example: see airport list